Time;durP1;ratioP1;P1;durP2;ratioP2;P2;SDS_P1;SDS_P2;PMS_P1;PMS_P2;Temp;Humidity;BMP_temperature;BMP_pressure;BME280_temperature;BME280_humidity;BME280_pressure;Samples;Min_cycle;Max_cycle;Signal;HPM_P1;HPM_P2
2023/02/04 00:02:24;;;;;;;;;;;2.90;99.90;;;;;;5009877;28;19972;-77
2023/02/04 00:04:50;;;;;;;;;;;2.90;99.90;;;;;;5018536;28;19956;-76
2023/02/04 00:07:17;;;;;;;;;;;3.00;99.90;;;;;;5019524;28;19921;-79
2023/02/04 00:09:45;;;;;;;;;;;2.90;99.90;;;;;;5014690;28;19959;-78
2023/02/04 00:12:11;;;;;;;;;;;3.00;99.90;;;;;;5017885;28;19967;-77
2023/02/04 00:14:36;;;;;;;;;;;2.90;99.90;;;;;;5019435;28;19917;-77
2023/02/04 00:17:02;;;;;;;;;;;2.70;99.90;;;;;;5017173;28;19924;-77
2023/02/04 00:19:27;;;;;;;;;;;3.00;99.90;;;;;;5018264;28;19920;-78
2023/02/04 00:21:53;;;;;;;;;;;2.90;99.90;;;;;;5012479;28;19920;-77
2023/02/04 00:24:18;;;;;;;;;;;3.00;99.90;;;;;;4996219;28;19920;-76
2023/02/04 00:26:44;;;;;;;;;;;2.70;99.90;;;;;;5011866;28;19917;-77
2023/02/04 00:29:10;;;;;;;;;;;2.70;99.90;;;;;;5007908;28;19917;-76
2023/02/04 00:31:35;;;;;;;;;;;2.50;99.90;;;;;;5017936;28;19949;-78
2023/02/04 00:34:01;;;;;;;;;;;2.50;99.90;;;;;;5019625;28;20384;-77
2023/02/04 00:36:26;;;;;;;;;;;2.90;99.90;;;;;;5016295;28;19913;-80
2023/02/04 00:38:52;;;;;;;;;;;2.70;99.90;;;;;;5009909;28;20357;-79
2023/02/04 00:41:17;;;;;;;;;;;2.60;99.90;;;;;;5009300;28;19952;-79
2023/02/04 00:43:43;;;;;;;;;;;2.60;99.90;;;;;;5016852;28;19991;-77
2023/02/04 00:46:09;;;;;;;;;;;2.60;99.90;;;;;;5018907;28;19921;-76
2023/02/04 00:48:34;;;;;;;;;;;2.70;99.90;;;;;;5016241;28;19913;-76
2023/02/04 00:51:00;;;;;;;;;;;2.70;99.90;;;;;;5015051;28;19924;-76
2023/02/04 00:53:25;;;;;;;;;;;2.60;99.90;;;;;;5015155;28;19991;-76
2023/02/04 00:55:51;;;;;;;;;;;2.60;99.90;;;;;;5020561;28;19908;-78
2023/02/04 00:58:17;;;;;;;;;;;2.70;99.90;;;;;;5016512;28;19913;-78
2023/02/04 01:00:42;;;;;;;;;;;2.50;99.90;;;;;;5013500;28;19921;-78
2023/02/04 01:03:08;;;;;;;;;;;2.40;99.90;;;;;;5015241;28;20393;-77
2023/02/04 01:05:33;;;;;;;;;;;2.50;99.90;;;;;;5011339;28;19917;-76
2023/02/04 01:07:59;;;;;;;;;;;2.50;99.90;;;;;;5016106;28;19921;-76
2023/02/04 01:10:25;;;;;;;;;;;2.60;99.90;;;;;;5017023;28;19916;-76
2023/02/04 01:12:51;;;;;;;;;;;2.60;99.90;;;;;;5018668;28;20358;-76
2023/02/04 01:15:16;;;;;;;;;;;2.80;99.90;;;;;;5011481;28;19920;-80
2023/02/04 01:17:42;;;;;;;;;;;2.80;99.90;;;;;;5010000;28;20787;-78
2023/02/04 01:20:08;;;;;;;;;;;2.60;99.90;;;;;;4997024;28;20484;-78
2023/02/04 01:22:34;;;;;;;;;;;2.50;99.90;;;;;;5015637;28;19917;-77
2023/02/04 01:24:59;;;;;;;;;;;2.60;99.90;;;;;;5009094;28;20051;-77
2023/02/04 01:27:25;;;;;;;;;;;2.60;99.90;;;;;;4994742;28;19923;-77
2023/02/04 01:29:50;;;;;;;;;;;2.70;99.90;;;;;;5012690;28;19917;-78
2023/02/04 01:32:16;;;;;;;;;;;2.60;99.90;;;;;;5020058;28;20418;-77
2023/02/04 01:34:42;;;;;;;;;;;2.70;99.90;;;;;;5011905;28;19913;-81
2023/02/04 01:37:07;;;;;;;;;;;2.60;99.90;;;;;;5014134;28;19913;-78
2023/02/04 01:39:33;;;;;;;;;;;2.50;99.90;;;;;;5018812;28;19960;-79
2023/02/04 01:41:59;;;;;;;;;;;2.50;99.90;;;;;;5019569;28;20420;-79
2023/02/04 01:44:26;;;;;;;;;;;2.70;99.90;;;;;;5012849;28;19936;-78
2023/02/04 01:46:51;;;;;;;;;;;2.70;99.90;;;;;;5021117;28;19924;-78
2023/02/04 01:49:17;;;;;;;;;;;2.60;99.90;;;;;;5015577;28;19913;-78
2023/02/04 01:51:42;;;;;;;;;;;2.60;99.90;;;;;;4997134;28;19937;-78
2023/02/04 01:54:10;;;;;;;;;;;2.40;99.90;;;;;;5017161;28;20395;-77
2023/02/04 01:56:36;;;;;;;;;;;2.40;99.90;;;;;;5014553;28;19916;-76
2023/02/04 01:59:01;;;;;;;;;;;2.30;99.90;;;;;;5014505;28;19913;-77
2023/02/04 02:01:37;;;;;;;;;;;2.30;99.90;;;;;;5015816;28;19921;-79
2023/02/04 02:04:04;;;;;;;;;;;2.40;99.90;;;;;;5010482;28;20051;-79
2023/02/04 02:06:30;;;;;;;;;;;2.40;99.90;;;;;;5015169;28;19927;-79
2023/02/04 02:08:57;;;;;;;;;;;2.30;99.90;;;;;;5015837;28;20360;-79
2023/02/04 02:11:23;;;;;;;;;;;2.40;99.90;;;;;;5019223;28;19913;-79
2023/02/04 02:13:48;;;;;;;;;;;2.40;99.90;;;;;;5018364;28;20377;-78
2023/02/04 02:16:14;;;;;;;;;;;2.60;99.90;;;;;;5011548;28;19909;-78
2023/02/04 02:18:40;;;;;;;;;;;2.40;99.90;;;;;;5016927;28;19917;-77
2023/02/04 02:21:08;;;;;;;;;;;2.40;99.90;;;;;;4996251;28;19917;-79
2023/02/04 02:23:42;;;;;;;;;;;2.60;99.90;;;;;;5015527;28;19913;-76
2023/02/04 02:26:08;;;;;;;;;;;2.50;99.90;;;;;;5010620;28;19917;-77
2023/02/04 02:28:33;;;;;;;;;;;2.40;99.90;;;;;;5006141;28;19919;-77
2023/02/04 02:30:59;;;;;;;;;;;2.30;99.90;;;;;;5017703;28;19974;-77
2023/02/04 02:33:25;;;;;;;;;;;2.40;99.90;;;;;;5013179;28;20120;-75
2023/02/04 02:35:50;;;;;;;;;;;2.40;99.90;;;;;;5019014;28;19913;-76
2023/02/04 02:38:17;;;;;;;;;;;2.40;99.90;;;;;;5014876;28;19912;-76
2023/02/04 02:40:42;;;;;;;;;;;2.40;99.90;;;;;;5003485;28;19909;-80
2023/02/04 02:43:09;;;;;;;;;;;2.30;99.90;;;;;;5011772;28;20359;-78
2023/02/04 02:45:34;;;;;;;;;;;2.30;99.90;;;;;;5005493;28;19920;-77
2023/02/04 02:48:03;;;;;;;;;;;2.40;99.90;;;;;;5015029;28;19918;-75
2023/02/04 02:50:30;;;;;;;;;;;2.30;99.90;;;;;;5003977;28;20711;-76
2023/02/04 02:52:55;;;;;;;;;;;2.30;99.90;;;;;;5009192;28;19916;-76
2023/02/04 02:55:22;;;;;;;;;;;2.20;99.90;;;;;;5016421;28;19909;-76
2023/02/04 02:57:48;;;;;;;;;;;2.30;99.90;;;;;;5005085;28;19937;-76
2023/02/04 03:00:15;;;;;;;;;;;2.30;99.90;;;;;;5006251;28;20401;-77
2023/02/04 03:02:42;;;;;;;;;;;2.30;99.90;;;;;;5017509;28;19959;-76
2023/02/04 03:05:07;;;;;;;;;;;2.40;99.90;;;;;;5019143;28;19912;-78
2023/02/04 03:07:33;;;;;;;;;;;2.30;99.90;;;;;;5020176;28;19917;-77
2023/02/04 03:09:59;;;;;;;;;;;2.30;99.90;;;;;;5009251;28;20506;-76
2023/02/04 03:12:24;;;;;;;;;;;2.40;99.90;;;;;;5014504;28;20027;-78
2023/02/04 03:14:50;;;;;;;;;;;2.40;99.90;;;;;;5019792;28;19913;-80
2023/02/04 03:17:16;;;;;;;;;;;2.40;99.90;;;;;;5008035;28;19913;-78
2023/02/04 03:19:41;;;;;;;;;;;2.40;99.90;;;;;;5019440;28;20364;-77
2023/02/04 03:22:07;;;;;;;;;;;2.40;99.90;;;;;;5018612;28;19970;-77
2023/02/04 03:24:34;;;;;;;;;;;2.30;99.90;;;;;;5016163;28;20064;-77
2023/02/04 03:26:59;;;;;;;;;;;2.30;99.90;;;;;;5018919;28;19917;-76
2023/02/04 03:29:25;;;;;;;;;;;2.20;99.90;;;;;;5016223;28;19912;-76
2023/02/04 03:31:51;;;;;;;;;;;2.10;99.90;;;;;;5020007;28;19920;-76
2023/02/04 03:34:16;;;;;;;;;;;2.10;99.90;;;;;;5018708;28;19991;-76
2023/02/04 03:36:42;;;;;;;;;;;2.10;99.90;;;;;;5020501;28;19913;-80
2023/02/04 03:39:07;;;;;;;;;;;2.10;99.90;;;;;;5022813;28;19913;-79
2023/02/04 03:41:33;;;;;;;;;;;2.10;99.90;;;;;;5017566;28;20369;-77
2023/02/04 03:43:58;;;;;;;;;;;2.00;99.90;;;;;;5017148;28;19917;-77
2023/02/04 03:46:24;;;;;;;;;;;1.90;99.90;;;;;;5021404;28;19924;-76
2023/02/04 03:48:50;;;;;;;;;;;1.70;99.90;;;;;;5020117;28;19917;-77
2023/02/04 03:51:16;;;;;;;;;;;1.60;99.90;;;;;;5017132;28;19948;-76
2023/02/04 03:53:41;;;;;;;;;;;1.60;99.90;;;;;;5013728;28;19967;-76
2023/02/04 03:56:07;;;;;;;;;;;1.70;99.90;;;;;;5018018;28;19913;-77
2023/02/04 03:58:32;;;;;;;;;;;1.70;99.90;;;;;;5013727;28;19913;-78
2023/02/04 04:00:58;;;;;;;;;;;1.70;99.90;;;;;;5013119;28;19921;-79
2023/02/04 04:03:23;;;;;;;;;;;1.50;99.90;;;;;;5022575;28;19936;-77
2023/02/04 04:05:49;;;;;;;;;;;1.50;99.90;;;;;;4998604;28;19924;-76
2023/02/04 04:08:15;;;;;;;;;;;1.40;99.90;;;;;;5019967;28;20297;-78
2023/02/04 04:10:40;;;;;;;;;;;1.30;99.90;;;;;;5013902;28;19915;-77
2023/02/04 04:13:06;;;;;;;;;;;1.40;99.90;;;;;;5012740;28;19912;-77
2023/02/04 04:15:31;;;;;;;;;;;1.40;99.90;;;;;;5019979;28;19920;-77
2023/02/04 04:17:57;;;;;;;;;;;1.50;99.90;;;;;;5021054;28;19920;-79
2023/02/04 04:20:24;;;;;;;;;;;1.50;99.90;;;;;;5018452;28;19940;-80
2023/02/04 04:22:50;;;;;;;;;;;1.70;99.90;;;;;;5015204;28;19946;-79
2023/02/04 04:25:16;;;;;;;;;;;1.80;99.90;;;;;;5015302;28;19917;-76
2023/02/04 04:27:41;;;;;;;;;;;1.60;99.90;;;;;;5017669;28;19920;-76
2023/02/04 04:30:07;;;;;;;;;;;1.60;99.90;;;;;;5021808;28;19909;-79
2023/02/04 04:32:32;;;;;;;;;;;1.60;99.90;;;;;;5020358;28;19913;-77
2023/02/04 04:34:58;;;;;;;;;;;1.40;99.90;;;;;;5017135;28;19953;-77
2023/02/04 04:37:24;;;;;;;;;;;1.30;99.90;;;;;;5001285;28;19965;-78
2023/02/04 04:39:49;;;;;;;;;;;1.30;99.90;;;;;;5012566;28;19913;-76
2023/02/04 04:42:15;;;;;;;;;;;1.30;99.90;;;;;;5006291;28;19913;-76
2023/02/04 04:44:40;;;;;;;;;;;1.40;99.90;;;;;;5012555;28;19913;-76
2023/02/04 04:47:06;;;;;;;;;;;1.60;99.90;;;;;;5022577;28;20003;-76
2023/02/04 04:49:31;;;;;;;;;;;1.60;99.90;;;;;;4993603;28;19999;-78
2023/02/04 04:51:57;;;;;;;;;;;1.50;99.90;;;;;;5012611;28;19909;-78
2023/02/04 04:54:23;;;;;;;;;;;1.50;99.90;;;;;;5011022;28;19999;-80
2023/02/04 04:56:48;;;;;;;;;;;1.60;99.90;;;;;;5015195;28;19909;-77
2023/02/04 04:59:14;;;;;;;;;;;1.50;99.90;;;;;;5021525;28;19935;-76
2023/02/04 05:01:39;;;;;;;;;;;1.30;99.90;;;;;;4994183;28;19921;-76
2023/02/04 05:04:05;;;;;;;;;;;1.20;99.90;;;;;;5006975;28;19913;-77
2023/02/04 05:06:30;;;;;;;;;;;1.30;99.90;;;;;;5012230;28;20484;-77
2023/02/04 05:08:56;;;;;;;;;;;1.20;99.90;;;;;;5004876;28;20757;-77
2023/02/04 05:11:22;;;;;;;;;;;1.20;99.90;;;;;;5004327;28;19913;-76
2023/02/04 05:13:47;;;;;;;;;;;1.10;99.90;;;;;;5017352;28;19913;-76
2023/02/04 05:16:13;;;;;;;;;;;1.10;99.90;;;;;;5004200;28;20620;-77
2023/02/04 05:18:40;;;;;;;;;;;1.10;99.90;;;;;;5017626;28;19917;-77
2023/02/04 05:21:06;;;;;;;;;;;1.10;99.90;;;;;;5019570;28;19952;-77
2023/02/04 05:23:32;;;;;;;;;;;1.00;99.90;;;;;;5014013;28;20008;-80
2023/02/04 05:25:57;;;;;;;;;;;1.00;99.90;;;;;;5016554;28;19967;-77
2023/02/04 05:28:23;;;;;;;;;;;1.00;99.90;;;;;;5021718;28;19990;-79
2023/02/04 05:30:48;;;;;;;;;;;0.90;99.90;;;;;;5014873;28;19920;-78
2023/02/04 05:33:14;;;;;;;;;;;1.00;99.90;;;;;;5017357;28;20063;-76
2023/02/04 05:35:40;;;;;;;;;;;1.00;99.90;;;;;;5013286;28;19913;-78
2023/02/04 05:38:05;;;;;;;;;;;1.00;99.90;;;;;;5016061;28;20490;-76
2023/02/04 05:40:31;;;;;;;;;;;1.00;99.90;;;;;;5021508;28;19913;-76
2023/02/04 05:42:56;;;;;;;;;;;0.90;99.90;;;;;;5007843;28;19920;-76
2023/02/04 05:45:22;;;;;;;;;;;0.90;99.90;;;;;;5005962;28;19913;-78
2023/02/04 05:47:47;;;;;;;;;;;0.90;99.90;;;;;;5014225;28;19917;-77
2023/02/04 05:50:13;;;;;;;;;;;0.90;99.90;;;;;;5004462;28;19963;-79
2023/02/04 05:52:39;;;;;;;;;;;0.80;99.90;;;;;;5012031;28;19920;-78
2023/02/04 05:55:05;;;;;;;;;;;0.80;99.90;;;;;;5011388;28;19966;-78
2023/02/04 05:57:30;;;;;;;;;;;0.80;99.90;;;;;;5019149;28;19927;-79
2023/02/04 05:59:56;;;;;;;;;;;0.80;99.90;;;;;;5007247;28;20555;-81
2023/02/04 06:02:21;;;;;;;;;;;0.90;99.90;;;;;;4999011;28;19920;-78
2023/02/04 06:04:47;;;;;;;;;;;0.90;99.90;;;;;;5016229;28;19913;-77
2023/02/04 06:07:13;;;;;;;;;;;0.80;99.90;;;;;;5009176;28;20596;-77
2023/02/04 06:09:38;;;;;;;;;;;0.70;99.90;;;;;;5016206;28;20300;-79
2023/02/04 06:12:04;;;;;;;;;;;0.70;99.90;;;;;;5012220;28;20325;-78
2023/02/04 06:14:29;;;;;;;;;;;0.80;99.90;;;;;;5008357;28;19917;-77
2023/02/04 06:16:55;;;;;;;;;;;0.80;99.90;;;;;;5009533;28;20705;-79
2023/02/04 06:19:21;;;;;;;;;;;0.80;99.90;;;;;;5017151;28;19917;-76
2023/02/04 06:21:46;;;;;;;;;;;0.80;99.90;;;;;;5013161;28;20312;-77
2023/02/04 06:24:12;;;;;;;;;;;0.80;99.90;;;;;;5012985;28;19921;-79
2023/02/04 06:26:37;;;;;;;;;;;0.80;99.90;;;;;;5020058;28;19917;-78
2023/02/04 06:29:03;;;;;;;;;;;0.80;99.90;;;;;;5010218;28;19913;-78
2023/02/04 06:31:29;;;;;;;;;;;0.90;99.90;;;;;;5010742;28;19960;-79
2023/02/04 06:33:54;;;;;;;;;;;0.80;99.90;;;;;;5014383;28;19920;-77
2023/02/04 06:36:20;;;;;;;;;;;0.80;99.90;;;;;;5006335;28;20418;-81
2023/02/04 06:38:46;;;;;;;;;;;0.80;99.90;;;;;;5013216;28;19920;-77
2023/02/04 06:41:11;;;;;;;;;;;0.80;99.90;;;;;;5010973;28;19945;-77
2023/02/04 06:43:37;;;;;;;;;;;0.80;99.90;;;;;;5011807;28;19916;-77
2023/02/04 06:46:02;;;;;;;;;;;0.80;99.90;;;;;;4986561;28;19991;-78
2023/02/04 06:48:28;;;;;;;;;;;0.70;99.90;;;;;;5003546;28;20657;-77
2023/02/04 06:50:53;;;;;;;;;;;0.70;99.90;;;;;;4997336;28;19940;-78
2023/02/04 06:53:19;;;;;;;;;;;0.70;99.90;;;;;;5011784;28;19919;-76
2023/02/04 06:55:44;;;;;;;;;;;0.70;99.90;;;;;;4995462;28;19935;-78
2023/02/04 06:58:10;;;;;;;;;;;0.70;99.90;;;;;;5024108;28;19913;-77
2023/02/04 07:00:36;;;;;;;;;;;0.70;99.90;;;;;;5020797;28;19921;-79
2023/02/04 07:03:01;;;;;;;;;;;0.70;99.90;;;;;;5015937;28;19952;-78
2023/02/04 07:05:27;;;;;;;;;;;0.70;99.90;;;;;;5011749;28;19928;-81
2023/02/04 07:07:52;;;;;;;;;;;0.70;99.90;;;;;;5010905;28;19918;-78
2023/02/04 07:10:19;;;;;;;;;;;0.70;99.90;;;;;;5007132;28;19909;-78
2023/02/04 07:12:45;;;;;;;;;;;0.70;99.90;;;;;;5013519;28;19914;-80
2023/02/04 07:15:11;;;;;;;;;;;0.80;99.90;;;;;;5022136;28;19913;-78
2023/02/04 07:17:36;;;;;;;;;;;0.80;99.90;;;;;;5015302;28;19921;-78
2023/02/04 07:20:02;;;;;;;;;;;0.80;99.90;;;;;;5017168;28;19920;-79
2023/02/04 07:22:28;;;;;;;;;;;0.80;99.90;;;;;;5021866;28;19917;-79
2023/02/04 07:24:53;;;;;;;;;;;0.80;99.90;;;;;;5013983;28;19987;-78
2023/02/04 07:27:19;;;;;;;;;;;0.90;99.90;;;;;;5017239;28;19921;-78
2023/02/04 07:29:44;;;;;;;;;;;0.90;99.90;;;;;;4998686;28;19921;-81
2023/02/04 07:32:10;;;;;;;;;;;0.90;99.90;;;;;;5000113;28;19913;-78
2023/02/04 07:34:35;;;;;;;;;;;1.60;99.90;;;;;;5021957;28;20316;-78
2023/02/04 07:37:01;;;;;;;;;;;2.50;99.90;;;;;;5012792;28;19913;-78
2023/02/04 07:39:27;;;;;;;;;;;3.10;99.90;;;;;;5020951;28;19948;-78
2023/02/04 07:41:52;;;;;;;;;;;3.50;99.90;;;;;;5015642;28;19913;-79
2023/02/04 07:44:18;;;;;;;;;;;3.80;99.90;;;;;;5018864;28;20039;-78
2023/02/04 07:46:44;;;;;;;;;;;4.10;99.90;;;;;;5018978;28;19916;-79
2023/02/04 07:49:09;;;;;;;;;;;4.40;99.90;;;;;;5016361;28;19923;-83
2023/02/04 07:51:35;;;;;;;;;;;4.60;99.90;;;;;;5014913;28;20353;-76
2023/02/04 07:54:00;;;;;;;;;;;4.60;99.70;;;;;;5017547;28;19917;-80
2023/02/04 07:56:26;;;;;;;;;;;4.80;99.60;;;;;;5016285;28;19920;-79
2023/02/04 07:58:51;;;;;;;;;;;5.00;99.00;;;;;;5019147;28;19913;-80
2023/02/04 08:01:17;;;;;;;;;;;5.10;99.40;;;;;;5018992;28;19995;-79
2023/02/04 08:03:43;;;;;;;;;;;5.20;97.90;;;;;;4994167;28;19913;-78
2023/02/04 08:06:09;;;;;;;;;;;5.40;97.50;;;;;;5012757;28;19928;-80
2023/02/04 08:08:34;;;;;;;;;;;5.50;97.30;;;;;;5017833;28;19917;-81
2023/02/04 08:11:00;;;;;;;;;;;5.60;97.40;;;;;;4997444;28;19920;-79
2023/02/04 08:13:25;;;;;;;;;;;6.00;96.80;;;;;;5002086;28;19948;-81
2023/02/04 08:15:51;;;;;;;;;;;5.80;96.40;;;;;;5001349;28;20019;-79
2023/02/04 08:18:17;;;;;;;;;;;5.80;96.30;;;;;;5014677;28;19924;-79
2023/02/04 08:20:42;;;;;;;;;;;6.00;96.60;;;;;;4998359;28;19921;-81
2023/02/04 08:23:08;;;;;;;;;;;5.50;96.30;;;;;;5014558;28;19921;-80
2023/02/04 08:25:33;;;;;;;;;;;5.50;96.40;;;;;;5022753;28;19913;-79
2023/02/04 08:27:59;;;;;;;;;;;5.60;96.80;;;;;;5019277;28;20412;-80
2023/02/04 08:30:24;;;;;;;;;;;5.80;96.40;;;;;;5015684;28;19947;-76
2023/02/04 08:32:50;;;;;;;;;;;5.70;96.90;;;;;;5009825;28;19909;-80
2023/02/04 08:35:16;;;;;;;;;;;6.10;96.50;;;;;;5015514;28;19913;-81
2023/02/04 08:37:41;;;;;;;;;;;6.10;95.40;;;;;;5016794;28;19913;-81
2023/02/04 08:40:07;;;;;;;;;;;5.90;95.00;;;;;;5014529;28;19916;-82
2023/02/04 08:42:33;;;;;;;;;;;6.20;95.70;;;;;;5013384;28;19913;-85
2023/02/04 08:44:59;;;;;;;;;;;6.50;95.10;;;;;;5013552;28;20132;-81
2023/02/04 08:47:25;;;;;;;;;;;6.60;95.10;;;;;;5013755;28;20376;-83
2023/02/04 08:49:50;;;;;;;;;;;6.60;94.70;;;;;;5018543;28;19913;-82
2023/02/04 08:52:16;;;;;;;;;;;6.60;95.10;;;;;;5017694;28;19909;-81
2023/02/04 08:54:42;;;;;;;;;;;6.20;95.50;;;;;;5017424;28;19921;-81
2023/02/04 08:57:07;;;;;;;;;;;6.40;95.50;;;;;;5016663;28;20003;-83
2023/02/04 08:59:33;;;;;;;;;;;6.80;94.50;;;;;;5017425;28;19909;-80
2023/02/04 09:01:58;;;;;;;;;;;6.60;94.90;;;;;;5001494;28;20039;-79
2023/02/04 09:04:24;;;;;;;;;;;6.50;95.20;;;;;;4999374;28;19984;-83
2023/02/04 09:06:50;;;;;;;;;;;7.00;95.10;;;;;;5018749;28;19935;-85
2023/02/04 09:09:16;;;;;;;;;;;7.30;94.40;;;;;;5016437;28;22220;-79
2023/02/04 09:11:42;;;;;;;;;;;7.40;94.40;;;;;;5020009;28;20805;-80
2023/02/04 09:14:08;;;;;;;;;;;7.10;95.00;;;;;;5008339;28;19917;-82
2023/02/04 09:16:34;;;;;;;;;;;7.00;94.70;;;;;;5008125;28;19913;-81
2023/02/04 09:19:00;;;;;;;;;;;7.40;95.10;;;;;;5005758;28;20375;-81
2023/02/04 09:21:26;;;;;;;;;;;7.70;94.20;;;;;;4998264;28;20016;-83
2023/02/04 09:23:54;;;;;;;;;;;7.90;93.40;;;;;;5009514;28;19947;-84
2023/02/04 09:26:19;;;;;;;;;;;8.10;93.30;;;;;;5008043;28;19956;-86
2023/02/04 09:28:47;;;;;;;;;;;8.30;93.10;;;;;;5012160;28;20008;-84
2023/02/04 09:31:13;;;;;;;;;;;8.20;92.00;;;;;;5012580;28;20298;-82
2023/02/04 09:33:39;;;;;;;;;;;8.60;92.70;;;;;;5016656;28;19919;-80
2023/02/04 09:36:04;;;;;;;;;;;8.60;92.10;;;;;;5016971;28;19912;-80
2023/02/04 09:38:30;;;;;;;;;;;8.10;92.60;;;;;;5019066;28;19931;-85
2023/02/04 09:40:58;;;;;;;;;;;7.90;93.60;;;;;;4999885;28;19964;-81
2023/02/04 09:43:26;;;;;;;;;;;7.70;93.70;;;;;;5015255;28;19959;-77
2023/02/04 09:45:52;;;;;;;;;;;8.20;93.20;;;;;;5016875;28;20274;-79
2023/02/04 09:48:18;;;;;;;;;;;8.50;92.60;;;;;;5018066;28;20377;-80
2023/02/04 09:50:44;;;;;;;;;;;7.60;92.60;;;;;;5019907;28;19920;-80
2023/02/04 09:53:11;;;;;;;;;;;7.20;93.40;;;;;;5008587;28;19924;-81
2023/02/04 09:55:38;;;;;;;;;;;7.60;93.10;;;;;;5000620;28;20588;-80
2023/02/04 09:58:16;;;;;;;;;;;7.60;94.00;;;;;;5018462;28;20373;-80
2023/02/04 10:00:42;;;;;;;;;;;7.90;94.90;;;;;;5014853;28;19928;-80
2023/02/04 10:03:13;;;;;;;;;;;8.20;93.60;;;;;;5016176;28;19913;-82
2023/02/04 10:05:38;;;;;;;;;;;8.10;92.90;;;;;;5009638;28;19997;-82
2023/02/04 10:08:04;;;;;;;;;;;8.40;93.10;;;;;;5010628;28;19929;-80
2023/02/04 10:10:30;;;;;;;;;;;7.60;93.10;;;;;;5012421;28;19923;-78
2023/02/04 10:13:00;;;;;;;;;;;7.30;94.00;;;;;;5012485;28;19916;-79
2023/02/04 10:15:26;;;;;;;;;;;7.90;94.80;;;;;;5014051;28;19967;-79
2023/02/04 10:18:04;;;;;;;;;;;7.90;93.70;;;;;;5008729;28;20710;-78
2023/02/04 10:20:30;;;;;;;;;;;7.90;94.70;;;;;;5012737;28;19917;-79
2023/02/04 10:22:55;;;;;;;;;;;8.30;94.00;;;;;;5011026;28;19960;-79
2023/02/04 10:25:22;;;;;;;;;;;7.80;93.80;;;;;;5016499;28;19912;-79
2023/02/04 10:27:54;;;;;;;;;;;7.60;94.60;;;;;;5014217;28;19920;-79
2023/02/04 10:30:21;;;;;;;;;;;7.50;95.50;;;;;;5019037;28;20396;-79
2023/02/04 10:32:47;;;;;;;;;;;7.70;96.10;;;;;;5011976;28;19999;-79
2023/02/04 10:35:14;;;;;;;;;;;7.80;95.10;;;;;;4999674;28;19909;-79
2023/02/04 10:37:39;;;;;;;;;;;7.60;95.40;;;;;;5018900;28;19909;-79
2023/02/04 10:40:05;;;;;;;;;;;7.70;96.20;;;;;;5013476;28;19905;-79
2023/02/04 10:42:31;;;;;;;;;;;7.50;95.50;;;;;;5018009;28;20000;-78
2023/02/04 10:44:56;;;;;;;;;;;7.70;95.80;;;;;;5011629;28;19917;-78
2023/02/04 10:47:22;;;;;;;;;;;8.00;96.10;;;;;;5018806;28;19960;-79
2023/02/04 10:49:55;;;;;;;;;;;7.90;96.50;;;;;;5018139;28;19916;-78
2023/02/04 10:52:21;;;;;;;;;;;7.80;96.00;;;;;;4996459;28;20007;-78
2023/02/04 10:54:47;;;;;;;;;;;8.00;96.40;;;;;;5011759;28;20040;-80
2023/02/04 10:57:15;;;;;;;;;;;8.00;95.70;;;;;;5009357;28;19913;-78
2023/02/04 10:59:41;;;;;;;;;;;8.20;95.10;;;;;;5007111;28;19988;-79
2023/02/04 11:02:19;;;;;;;;;;;8.20;97.30;;;;;;5017356;28;20003;-79
2023/02/04 11:04:44;;;;;;;;;;;8.30;95.30;;;;;;5001883;28;19921;-79
2023/02/04 11:07:11;;;;;;;;;;;8.40;95.30;;;;;;5004004;28;19993;-78
2023/02/04 11:09:40;;;;;;;;;;;8.40;97.00;;;;;;5004621;28;19913;-80
2023/02/04 11:12:17;;;;;;;;;;;8.40;95.50;;;;;;5014980;28;20004;-79
2023/02/04 11:14:52;;;;;;;;;;;8.60;95.70;;;;;;5006521;28;19935;-78
2023/02/04 11:17:19;;;;;;;;;;;8.40;96.20;;;;;;4997797;28;19999;-79
2023/02/04 11:19:45;;;;;;;;;;;8.40;97.40;;;;;;5012897;28;20042;-79
2023/02/04 11:22:22;;;;;;;;;;;8.50;96.70;;;;;;5006053;28;19961;-79
2023/02/04 11:24:47;;;;;;;;;;;8.40;96.80;;;;;;5007573;28;19913;-79
2023/02/04 11:27:21;;;;;;;;;;;8.60;97.00;;;;;;5015848;28;19924;-79
2023/02/04 11:29:47;;;;;;;;;;;8.70;96.30;;;;;;5014801;28;19909;-79
2023/02/04 11:32:27;;;;;;;;;;;8.60;95.80;;;;;;5008872;28;20733;-79
2023/02/04 11:34:54;;;;;;;;;;;8.50;97.00;;;;;;5002402;28;19939;-79
2023/02/04 11:37:26;;;;;;;;;;;8.50;98.10;;;;;;5007633;28;20031;-78
2023/02/04 11:39:51;;;;;;;;;;;8.70;96.30;;;;;;5011703;28;19949;-78
2023/02/04 11:42:17;;;;;;;;;;;8.60;97.30;;;;;;5006232;28;20666;-79
2023/02/04 11:44:47;;;;;;;;;;;8.70;96.10;;;;;;5011717;28;19919;-79
2023/02/04 11:47:13;;;;;;;;;;;8.70;96.60;;;;;;5024448;28;19921;-78
2023/02/04 11:49:38;;;;;;;;;;;8.70;96.40;;;;;;5008661;28;19920;-79
2023/02/04 11:52:07;;;;;;;;;;;8.70;97.00;;;;;;5007339;28;19920;-79
2023/02/04 11:54:34;;;;;;;;;;;8.60;96.70;;;;;;5007234;28;19920;-79
2023/02/04 11:57:00;;;;;;;;;;;8.80;97.70;;;;;;5015987;28;19908;-78
2023/02/04 11:59:25;;;;;;;;;;;8.70;97.40;;;;;;5022006;28;19972;-79
2023/02/04 12:02:02;;;;;;;;;;;8.60;96.90;;;;;;5014958;28;19921;-78
2023/02/04 12:04:27;;;;;;;;;;;8.60;97.30;;;;;;5017627;28;19921;-79
2023/02/04 12:06:58;;;;;;;;;;;8.80;98.80;;;;;;5007171;28;19932;-80
2023/02/04 12:09:25;;;;;;;;;;;8.80;97.90;;;;;;5005724;28;19921;-78
2023/02/04 12:11:54;;;;;;;;;;;8.80;99.00;;;;;;5014740;28;19909;-79
2023/02/04 12:14:20;;;;;;;;;;;8.80;99.00;;;;;;5012384;28;20767;-79
2023/02/04 12:16:46;;;;;;;;;;;8.70;97.00;;;;;;5020136;28;19913;-79
2023/02/04 12:19:12;;;;;;;;;;;8.80;98.40;;;;;;5008862;28;19916;-79
2023/02/04 12:21:38;;;;;;;;;;;8.80;99.10;;;;;;5010455;28;19924;-79
2023/02/04 12:24:04;;;;;;;;;;;8.80;98.20;;;;;;5006975;28;19913;-79
2023/02/04 12:26:30;;;;;;;;;;;8.90;98.30;;;;;;5006576;28;19984;-79
2023/02/04 12:28:56;;;;;;;;;;;9.00;98.50;;;;;;5005545;28;20277;-79
2023/02/04 12:31:21;;;;;;;;;;;9.00;98.60;;;;;;5005010;28;20004;-79
2023/02/04 12:33:47;;;;;;;;;;;8.90;98.20;;;;;;5010398;28;19920;-79
2023/02/04 12:36:12;;;;;;;;;;;9.00;97.70;;;;;;5007270;28;20448;-79
2023/02/04 12:38:39;;;;;;;;;;;9.00;98.60;;;;;;5011920;28;19991;-80
2023/02/04 12:41:04;;;;;;;;;;;9.00;97.70;;;;;;5015310;28;20003;-79
2023/02/04 12:43:30;;;;;;;;;;;9.20;98.50;;;;;;5016505;28;20021;-78
2023/02/04 12:45:56;;;;;;;;;;;9.20;97.70;;;;;;5016654;28;19913;-79
2023/02/04 12:48:21;;;;;;;;;;;9.10;98.00;;;;;;5014489;28;20380;-81
2023/02/04 12:50:47;;;;;;;;;;;9.10;97.40;;;;;;5007787;28;20506;-82
2023/02/04 12:53:12;;;;;;;;;;;9.20;99.20;;;;;;4998523;28;19920;-83
2023/02/04 12:55:38;;;;;;;;;;;9.10;97.40;;;;;;5015487;28;19949;-82
2023/02/04 12:58:03;;;;;;;;;;;9.20;97.40;;;;;;5023477;28;19909;-81
2023/02/04 13:00:29;;;;;;;;;;;9.20;97.60;;;;;;5018214;28;19978;-83
2023/02/04 13:02:57;;;;;;;;;;;9.20;97.80;;;;;;5014934;28;20084;-81
2023/02/04 13:05:23;;;;;;;;;;;9.30;98.10;;;;;;5014069;28;20716;-85
2023/02/04 13:07:49;;;;;;;;;;;9.30;98.70;;;;;;5016862;28;19921;-81
2023/02/04 13:10:14;;;;;;;;;;;9.40;99.50;;;;;;5019667;28;19944;-81
2023/02/04 13:12:40;;;;;;;;;;;9.40;97.80;;;;;;5001295;28;19956;-80
2023/02/04 13:15:06;;;;;;;;;;;9.60;98.80;;;;;;5011169;28;19913;-81
2023/02/04 13:17:32;;;;;;;;;;;9.70;98.50;;;;;;4999933;28;20008;-81
2023/02/04 13:19:59;;;;;;;;;;;9.80;99.80;;;;;;5015132;28;20563;-81
2023/02/04 13:22:25;;;;;;;;;;;9.80;98.70;;;;;;5017794;28;19924;-82
2023/02/04 13:24:50;;;;;;;;;;;9.80;98.60;;;;;;5016468;28;19917;-80
2023/02/04 13:27:16;;;;;;;;;;;9.60;98.70;;;;;;5015511;28;20055;-81
2023/02/04 13:29:41;;;;;;;;;;;9.60;99.40;;;;;;5012628;28;20751;-82
2023/02/04 13:32:08;;;;;;;;;;;9.60;99.00;;;;;;5010817;28;19913;-82
2023/02/04 13:34:34;;;;;;;;;;;9.60;98.60;;;;;;5017557;28;19940;-81
2023/02/04 13:36:59;;;;;;;;;;;9.70;99.70;;;;;;4999628;28;19946;-84
2023/02/04 13:39:25;;;;;;;;;;;9.70;99.20;;;;;;5009971;28;19909;-80
2023/02/04 13:41:53;;;;;;;;;;;9.70;99.40;;;;;;5013809;28;19917;-84
2023/02/04 13:44:18;;;;;;;;;;;9.60;98.50;;;;;;5016845;28;19920;-81
2023/02/04 13:46:44;;;;;;;;;;;9.70;98.50;;;;;;5013203;28;20119;-82
2023/02/04 13:49:09;;;;;;;;;;;9.80;99.20;;;;;;5013442;28;20060;-81
2023/02/04 13:51:35;;;;;;;;;;;9.80;99.90;;;;;;5004727;28;19974;-81
2023/02/04 13:54:01;;;;;;;;;;;9.90;98.60;;;;;;4995775;28;19917;-82
2023/02/04 13:56:26;;;;;;;;;;;9.90;99.70;;;;;;4990639;28;19917;-82
2023/02/04 13:58:52;;;;;;;;;;;9.80;99.20;;;;;;5010463;28;19913;-82
2023/02/04 14:01:18;;;;;;;;;;;10.00;99.60;;;;;;5010722;28;20405;-81
2023/02/04 14:03:44;;;;;;;;;;;10.00;98.80;;;;;;5007318;28;19920;-80
2023/02/04 14:06:09;;;;;;;;;;;10.00;99.50;;;;;;4996243;28;19917;-83
2023/02/04 14:08:35;;;;;;;;;;;10.00;99.80;;;;;;5011368;28;19917;-82
2023/02/04 14:11:01;;;;;;;;;;;9.90;99.80;;;;;;4995379;28;19920;-81
2023/02/04 14:13:26;;;;;;;;;;;10.00;99.90;;;;;;5016331;28;19921;-81
2023/02/04 14:15:52;;;;;;;;;;;9.80;99.90;;;;;;5014177;28;19913;-84
2023/02/04 14:18:17;;;;;;;;;;;9.80;99.90;;;;;;4995651;28;19923;-85
2023/02/04 14:20:43;;;;;;;;;;;9.80;99.90;;;;;;5015629;28;19917;-84
2023/02/04 14:23:10;;;;;;;;;;;9.90;99.90;;;;;;5018932;28;19917;-84
2023/02/04 14:25:36;;;;;;;;;;;9.70;99.90;;;;;;5017673;28;20692;-84